sensor_id;sensor_type;location;lat;lon;timestamp;pressure;altitude;pressure_sealevel;temperature;humidity
71873;BME280;59745;52.924;-2.388;2022-07-23T00:03:01;99556.88;;;26.07;37.07
71873;BME280;59745;52.924;-2.388;2022-07-23T00:05:25;99555.82;;;26.45;36.84
71873;BME280;59745;52.924;-2.388;2022-07-23T00:07:51;99558.38;;;26.02;37.12
71873;BME280;59745;52.924;-2.388;2022-07-23T00:10:16;99560.32;;;26.11;36.38
71873;BME280;59745;52.924;-2.388;2022-07-23T00:12:42;99561.90;;;26.00;36.66
71873;BME280;59745;52.924;-2.388;2022-07-23T00:15:08;99562.66;;;26.38;36.76
71873;BME280;59745;52.924;-2.388;2022-07-23T00:17:32;99564.86;;;26.14;37.12
71873;BME280;59745;52.924;-2.388;2022-07-23T00:19:58;99561.65;;;25.97;37.42
71873;BME280;59745;52.924;-2.388;2022-07-23T00:22:24;99564.03;;;25.95;37.54
71873;BME280;59745;52.924;-2.388;2022-07-23T00:24:49;99561.81;;;26.00;37.17
71873;BME280;59745;52.924;-2.388;2022-07-23T00:27:14;99560.18;;;25.90;37.45
71873;BME280;59745;52.924;-2.388;2022-07-23T00:29:40;99558.36;;;25.87;37.98
71873;BME280;59745;52.924;-2.388;2022-07-23T00:32:06;99555.94;;;25.36;37.71
71873;BME280;59745;52.924;-2.388;2022-07-23T00:34:31;99554.54;;;25.50;38.43
71873;BME280;59745;52.924;-2.388;2022-07-23T00:36:56;99555.85;;;25.01;38.03
71873;BME280;59745;52.924;-2.388;2022-07-23T00:39:22;99551.19;;;25.64;37.45
71873;BME280;59745;52.924;-2.388;2022-07-23T00:41:47;99552.17;;;25.05;38.24
71873;BME280;59745;52.924;-2.388;2022-07-23T00:44:15;99551.71;;;24.96;37.92
71873;BME280;59745;52.924;-2.388;2022-07-23T00:46:44;99552.03;;;24.91;38.51
71873;BME280;59745;52.924;-2.388;2022-07-23T00:49:04;99546.38;;;24.78;38.12
71873;BME280;59745;52.924;-2.388;2022-07-23T00:51:29;99544.68;;;25.01;38.01
71873;BME280;59745;52.924;-2.388;2022-07-23T00:53:55;99539.20;;;24.77;38.37
71873;BME280;59745;52.924;-2.388;2022-07-23T00:56:20;99535.24;;;25.00;37.82
71873;BME280;59745;52.924;-2.388;2022-07-23T00:58:46;99538.58;;;25.06;37.95
71873;BME280;59745;52.924;-2.388;2022-07-23T01:01:12;99539.15;;;24.89;38.20
71873;BME280;59745;52.924;-2.388;2022-07-23T01:03:37;99537.26;;;24.99;38.12
71873;BME280;59745;52.924;-2.388;2022-07-23T01:06:02;99537.80;;;25.07;38.12
71873;BME280;59745;52.924;-2.388;2022-07-23T01:08:27;99535.54;;;25.06;38.02
71873;BME280;59745;52.924;-2.388;2022-07-23T01:10:52;99536.14;;;25.22;37.49
71873;BME280;59745;52.924;-2.388;2022-07-23T01:13:18;99538.12;;;25.04;37.66
71873;BME280;59745;52.924;-2.388;2022-07-23T01:15:43;99538.09;;;25.21;37.59
71873;BME280;59745;52.924;-2.388;2022-07-23T01:18:09;99534.47;;;25.08;37.58
71873;BME280;59745;52.924;-2.388;2022-07-23T01:20:34;99533.60;;;25.11;37.43
71873;BME280;59745;52.924;-2.388;2022-07-23T01:23:00;99533.08;;;25.03;37.42
71873;BME280;59745;52.924;-2.388;2022-07-23T01:25:26;99531.00;;;25.25;37.06
71873;BME280;59745;52.924;-2.388;2022-07-23T01:27:52;99536.75;;;24.74;37.35
71873;BME280;59745;52.924;-2.388;2022-07-23T01:30:16;99540.16;;;24.71;37.51
71873;BME280;59745;52.924;-2.388;2022-07-23T01:32:42;99535.88;;;24.75;37.52
71873;BME280;59745;52.924;-2.388;2022-07-23T01:35:08;99536.18;;;24.61;37.60
71873;BME280;59745;52.924;-2.388;2022-07-23T01:37:32;99536.72;;;24.74;37.54
71873;BME280;59745;52.924;-2.388;2022-07-23T01:39:58;99535.89;;;24.49;37.66
71873;BME280;59745;52.924;-2.388;2022-07-23T01:42:24;99531.47;;;24.63;37.54
71873;BME280;59745;52.924;-2.388;2022-07-23T01:44:48;99532.34;;;24.27;38.02
71873;BME280;59745;52.924;-2.388;2022-07-23T01:47:13;99530.57;;;24.49;37.90
71873;BME280;59745;52.924;-2.388;2022-07-23T01:49:39;99529.38;;;24.25;37.98
71873;BME280;59745;52.924;-2.388;2022-07-23T01:52:04;99529.77;;;24.67;38.03
71873;BME280;59745;52.924;-2.388;2022-07-23T01:54:31;99528.20;;;24.26;38.19
71873;BME280;59745;52.924;-2.388;2022-07-23T01:56:55;99527.19;;;24.36;37.93
71873;BME280;59745;52.924;-2.388;2022-07-23T01:59:20;99526.50;;;24.29;38.15
71873;BME280;59745;52.924;-2.388;2022-07-23T02:01:45;99532.79;;;24.75;37.47
71873;BME280;59745;52.924;-2.388;2022-07-23T02:04:11;99533.67;;;24.63;37.52
71873;BME280;59745;52.924;-2.388;2022-07-23T02:06:36;99534.93;;;24.26;37.63
71873;BME280;59745;52.924;-2.388;2022-07-23T02:09:02;99535.10;;;24.21;37.94
71873;BME280;59745;52.924;-2.388;2022-07-23T02:11:27;99531.60;;;24.11;37.93
71873;BME280;59745;52.924;-2.388;2022-07-23T02:13:53;99529.21;;;24.09;37.92
71873;BME280;59745;52.924;-2.388;2022-07-23T02:16:18;99528.29;;;23.97;37.65
71873;BME280;59745;52.924;-2.388;2022-07-23T02:18:44;99525.27;;;23.65;37.56
71873;BME280;59745;52.924;-2.388;2022-07-23T02:21:09;99521.70;;;24.07;38.04
71873;BME280;59745;52.924;-2.388;2022-07-23T02:23:35;99516.96;;;24.11;37.64
71873;BME280;59745;52.924;-2.388;2022-07-23T02:26:01;99516.52;;;23.77;37.95
71873;BME280;59745;52.924;-2.388;2022-07-23T02:28:26;99512.69;;;23.65;37.68
71873;BME280;59745;52.924;-2.388;2022-07-23T02:30:51;99515.72;;;23.67;38.02
71873;BME280;59745;52.924;-2.388;2022-07-23T02:33:16;99517.11;;;23.70;38.43
71873;BME280;59745;52.924;-2.388;2022-07-23T02:35:41;99520.39;;;23.66;38.46
71873;BME280;59745;52.924;-2.388;2022-07-23T02:38:07;99517.80;;;23.77;38.52
71873;BME280;59745;52.924;-2.388;2022-07-23T02:40:32;99514.74;;;23.92;37.97
71873;BME280;59745;52.924;-2.388;2022-07-23T02:42:58;99513.35;;;23.97;37.63
71873;BME280;59745;52.924;-2.388;2022-07-23T02:45:23;99521.04;;;23.68;37.77
71873;BME280;59745;52.924;-2.388;2022-07-23T02:47:49;99523.46;;;24.04;37.54
71873;BME280;59745;52.924;-2.388;2022-07-23T02:50:15;99527.87;;;23.85;37.25
71873;BME280;59745;52.924;-2.388;2022-07-23T02:52:41;99530.47;;;23.85;37.34
71873;BME280;59745;52.924;-2.388;2022-07-23T02:55:07;99532.63;;;23.80;37.23
71873;BME280;59745;52.924;-2.388;2022-07-23T02:57:31;99529.19;;;23.81;37.35
71873;BME280;59745;52.924;-2.388;2022-07-23T02:59:57;99531.84;;;23.81;36.83
71873;BME280;59745;52.924;-2.388;2022-07-23T03:02:22;99535.26;;;23.77;36.68
71873;BME280;59745;52.924;-2.388;2022-07-23T03:04:48;99534.57;;;24.01;36.89
71873;BME280;59745;52.924;-2.388;2022-07-23T03:07:13;99536.48;;;23.33;37.21
71873;BME280;59745;52.924;-2.388;2022-07-23T03:09:39;99534.74;;;23.43;37.21
71873;BME280;59745;52.924;-2.388;2022-07-23T03:12:05;99529.73;;;23.38;37.57
71873;BME280;59745;52.924;-2.388;2022-07-23T03:14:29;99524.50;;;23.11;37.69
71873;BME280;59745;52.924;-2.388;2022-07-23T03:16:54;99519.12;;;23.45;37.81
71873;BME280;59745;52.924;-2.388;2022-07-23T03:19:20;99518.05;;;23.11;38.00
71873;BME280;59745;52.924;-2.388;2022-07-23T03:21:45;99518.92;;;23.12;38.01
71873;BME280;59745;52.924;-2.388;2022-07-23T03:24:10;99515.77;;;23.21;37.55
71873;BME280;59745;52.924;-2.388;2022-07-23T03:26:36;99510.70;;;23.12;37.28
71873;BME280;59745;52.924;-2.388;2022-07-23T03:29:02;99510.47;;;23.19;37.11
71873;BME280;59745;52.924;-2.388;2022-07-23T03:31:27;99509.49;;;23.01;36.63
71873;BME280;59745;52.924;-2.388;2022-07-23T03:33:52;99516.57;;;22.93;36.47
71873;BME280;59745;52.924;-2.388;2022-07-23T03:36:17;99520.64;;;23.00;36.61
71873;BME280;59745;52.924;-2.388;2022-07-23T03:38:43;99526.87;;;22.82;36.98
71873;BME280;59745;52.924;-2.388;2022-07-23T03:41:08;99531.75;;;22.89;36.65
71873;BME280;59745;52.924;-2.388;2022-07-23T03:43:33;99531.45;;;22.86;36.56
71873;BME280;59745;52.924;-2.388;2022-07-23T03:45:59;99528.70;;;22.76;36.50
71873;BME280;59745;52.924;-2.388;2022-07-23T03:48:24;99530.34;;;22.72;36.56
71873;BME280;59745;52.924;-2.388;2022-07-23T03:50:50;99531.82;;;22.59;36.80
71873;BME280;59745;52.924;-2.388;2022-07-23T03:53:15;99532.85;;;22.47;37.03
71873;BME280;59745;52.924;-2.388;2022-07-23T03:55:40;99527.59;;;22.29;37.49
71873;BME280;59745;52.924;-2.388;2022-07-23T03:58:06;99521.03;;;22.39;37.65
71873;BME280;59745;52.924;-2.388;2022-07-23T04:00:31;99514.81;;;22.40;37.80
71873;BME280;59745;52.924;-2.388;2022-07-23T04:02:56;99512.54;;;22.48;37.28
71873;BME280;59745;52.924;-2.388;2022-07-23T04:05:22;99507.89;;;22.56;36.91
71873;BME280;59745;52.924;-2.388;2022-07-23T04:07:47;99504.29;;;22.74;36.02
71873;BME280;59745;52.924;-2.388;2022-07-23T04:10:13;99502.57;;;22.94;35.80
71873;BME280;59745;52.924;-2.388;2022-07-23T04:12:38;99502.78;;;22.37;36.45
71873;BME280;59745;52.924;-2.388;2022-07-23T04:15:06;99503.26;;;22.64;36.67
71873;BME280;59745;52.924;-2.388;2022-07-23T04:17:29;99501.58;;;22.31;36.70
71873;BME280;59745;52.924;-2.388;2022-07-23T04:19:54;99496.03;;;22.52;36.97
71873;BME280;59745;52.924;-2.388;2022-07-23T04:22:19;99497.10;;;22.55;37.19
71873;BME280;59745;52.924;-2.388;2022-07-23T04:24:44;99494.58;;;22.50;37.03
71873;BME280;59745;52.924;-2.388;2022-07-23T04:27:10;99490.01;;;22.80;36.74
71873;BME280;59745;52.924;-2.388;2022-07-23T04:29:35;99492.90;;;22.27;36.85
71873;BME280;59745;52.924;-2.388;2022-07-23T04:32:00;99486.16;;;22.38;36.82
71873;BME280;59745;52.924;-2.388;2022-07-23T04:34:25;99488.29;;;22.87;36.88
71873;BME280;59745;52.924;-2.388;2022-07-23T04:36:50;99493.39;;;22.53;36.81
71873;BME280;59745;52.924;-2.388;2022-07-23T04:39:15;99497.63;;;22.66;36.58
71873;BME280;59745;52.924;-2.388;2022-07-23T04:41:41;99497.39;;;23.33;36.01
71873;BME280;59745;52.924;-2.388;2022-07-23T04:44:06;99504.98;;;23.02;35.55
71873;BME280;59745;52.924;-2.388;2022-07-23T04:46:31;99510.12;;;23.11;35.62
71873;BME280;59745;52.924;-2.388;2022-07-23T04:48:56;99514.73;;;23.06;35.86
71873;BME280;59745;52.924;-2.388;2022-07-23T04:51:21;99516.86;;;22.96;35.79
71873;BME280;59745;52.924;-2.388;2022-07-23T04:53:46;99517.94;;;23.58;35.45
71873;BME280;59745;52.924;-2.388;2022-07-23T04:56:12;99512.96;;;23.18;35.62
71873;BME280;59745;52.924;-2.388;2022-07-23T04:58:37;99509.70;;;22.83;35.88
71873;BME280;59745;52.924;-2.388;2022-07-23T05:01:02;99509.01;;;22.70;36.10
71873;BME280;59745;52.924;-2.388;2022-07-23T05:03:27;99504.20;;;22.65;36.34
71873;BME280;59745;52.924;-2.388;2022-07-23T05:05:52;99503.08;;;22.84;36.36
71873;BME280;59745;52.924;-2.388;2022-07-23T05:08:17;99498.11;;;22.99;36.10
71873;BME280;59745;52.924;-2.388;2022-07-23T05:10:43;99499.30;;;23.13;35.62
71873;BME280;59745;52.924;-2.388;2022-07-23T05:13:08;99502.23;;;23.04;35.58
71873;BME280;59745;52.924;-2.388;2022-07-23T05:15:34;99499.26;;;23.21;35.43
71873;BME280;59745;52.924;-2.388;2022-07-23T05:17:59;99494.85;;;23.08;35.57
71873;BME280;59745;52.924;-2.388;2022-07-23T05:20:24;99500.11;;;23.39;35.64
71873;BME280;59745;52.924;-2.388;2022-07-23T05:22:49;99503.83;;;23.36;35.29
71873;BME280;59745;52.924;-2.388;2022-07-23T05:25:14;99503.45;;;23.53;35.33
71873;BME280;59745;52.924;-2.388;2022-07-23T05:27:39;99502.74;;;23.32;35.43
71873;BME280;59745;52.924;-2.388;2022-07-23T05:30:05;99507.51;;;23.40;35.57
71873;BME280;59745;52.924;-2.388;2022-07-23T05:32:31;99509.82;;;23.61;35.20
71873;BME280;59745;52.924;-2.388;2022-07-23T05:34:55;99507.26;;;23.32;35.33
71873;BME280;59745;52.924;-2.388;2022-07-23T05:37:20;99505.90;;;23.47;35.30
71873;BME280;59745;52.924;-2.388;2022-07-23T05:39:45;99505.41;;;23.63;34.93
71873;BME280;59745;52.924;-2.388;2022-07-23T05:42:10;99500.18;;;23.56;34.99
71873;BME280;59745;52.924;-2.388;2022-07-23T05:44:35;99491.37;;;23.41;35.38
71873;BME280;59745;52.924;-2.388;2022-07-23T05:47:01;99494.05;;;23.53;35.52
71873;BME280;59745;52.924;-2.388;2022-07-23T05:49:25;99497.77;;;24.02;34.22
71873;BME280;59745;52.924;-2.388;2022-07-23T05:51:51;99495.78;;;23.66;33.41
71873;BME280;59745;52.924;-2.388;2022-07-23T05:54:16;99498.22;;;24.18;33.56
71873;BME280;59745;52.924;-2.388;2022-07-23T05:56:41;99493.69;;;24.02;33.83
71873;BME280;59745;52.924;-2.388;2022-07-23T05:59:06;99491.19;;;24.33;33.69
71873;BME280;59745;52.924;-2.388;2022-07-23T06:01:32;99489.00;;;23.76;33.86
71873;BME280;59745;52.924;-2.388;2022-07-23T06:03:57;99492.09;;;24.35;33.37
71873;BME280;59745;52.924;-2.388;2022-07-23T06:06:22;99493.28;;;24.10;32.95
71873;BME280;59745;52.924;-2.388;2022-07-23T06:08:47;99492.93;;;24.17;33.08
71873;BME280;59745;52.924;-2.388;2022-07-23T06:11:12;99493.05;;;24.75;33.00
71873;BME280;59745;52.924;-2.388;2022-07-23T06:13:37;99494.67;;;24.30;32.95
71873;BME280;59745;52.924;-2.388;2022-07-23T06:16:03;99491.46;;;24.42;32.76
71873;BME280;59745;52.924;-2.388;2022-07-23T06:18:27;99487.07;;;24.67;32.63
71873;BME280;59745;52.924;-2.388;2022-07-23T06:20:52;99482.20;;;24.48;32.66
71873;BME280;59745;52.924;-2.388;2022-07-23T06:23:17;99482.71;;;24.53;32.73
71873;BME280;59745;52.924;-2.388;2022-07-23T06:25:43;99480.01;;;24.61;32.89
71873;BME280;59745;52.924;-2.388;2022-07-23T06:28:08;99481.13;;;24.94;32.22
71873;BME280;59745;52.924;-2.388;2022-07-23T06:30:33;99483.33;;;24.74;32.10
71873;BME280;59745;52.924;-2.388;2022-07-23T06:32:58;99480.24;;;24.80;31.98
71873;BME280;59745;52.924;-2.388;2022-07-23T06:35:23;99476.96;;;24.84;32.04
71873;BME280;59745;52.924;-2.388;2022-07-23T06:37:48;99475.64;;;24.67;32.23
71873;BME280;59745;52.924;-2.388;2022-07-23T06:40:13;99476.87;;;24.92;32.23
71873;BME280;59745;52.924;-2.388;2022-07-23T06:42:38;99476.96;;;25.05;31.99
71873;BME280;59745;52.924;-2.388;2022-07-23T06:45:04;99475.39;;;25.52;30.80
71873;BME280;59745;52.924;-2.388;2022-07-23T06:47:28;99477.38;;;25.49;31.51
71873;BME280;59745;52.924;-2.388;2022-07-23T06:49:53;99478.45;;;25.68;31.20
71873;BME280;59745;52.924;-2.388;2022-07-23T06:52:18;99481.72;;;25.55;30.31
71873;BME280;59745;52.924;-2.388;2022-07-23T06:54:44;99485.35;;;25.40;31.18
71873;BME280;59745;52.924;-2.388;2022-07-23T06:57:09;99489.04;;;25.92;31.72
71873;BME280;59745;52.924;-2.388;2022-07-23T06:59:34;99492.63;;;26.00;31.93
71873;BME280;59745;52.924;-2.388;2022-07-23T07:01:59;99486.32;;;26.56;31.52
71873;BME280;59745;52.924;-2.388;2022-07-23T07:04:24;99484.20;;;26.26;30.63
71873;BME280;59745;52.924;-2.388;2022-07-23T07:06:49;99480.30;;;26.43;29.58
71873;BME280;59745;52.924;-2.388;2022-07-23T07:09:14;99473.23;;;26.34;29.88
71873;BME280;59745;52.924;-2.388;2022-07-23T07:11:40;99468.34;;;26.54;29.60
71873;BME280;59745;52.924;-2.388;2022-07-23T07:14:05;99470.74;;;26.54;29.69
71873;BME280;59745;52.924;-2.388;2022-07-23T07:16:31;99471.09;;;26.40;29.93
71873;BME280;59745;52.924;-2.388;2022-07-23T07:18:56;99474.02;;;26.76;30.27
71873;BME280;59745;52.924;-2.388;2022-07-23T07:21:21;99479.34;;;26.31;30.76
71873;BME280;59745;52.924;-2.388;2022-07-23T07:23:46;99483.24;;;26.73;30.80
71873;BME280;59745;52.924;-2.388;2022-07-23T07:26:11;99490.77;;;26.61;30.05
71873;BME280;59745;52.924;-2.388;2022-07-23T07:28:36;99491.19;;;26.63;30.44
71873;BME280;59745;52.924;-2.388;2022-07-23T07:31:01;99490.81;;;26.47;30.93
71873;BME280;59745;52.924;-2.388;2022-07-23T07:33:26;99491.93;;;26.14;30.86
71873;BME280;59745;52.924;-2.388;2022-07-23T07:35:51;99490.57;;;26.34;30.84
71873;BME280;59745;52.924;-2.388;2022-07-23T07:38:16;99495.10;;;26.49;31.02
71873;BME280;59745;52.924;-2.388;2022-07-23T07:40:41;99497.53;;;26.19;31.19
71873;BME280;59745;52.924;-2.388;2022-07-23T07:43:06;99494.01;;;26.24;31.49
71873;BME280;59745;52.924;-2.388;2022-07-23T07:45:32;99492.86;;;26.19;31.73
71873;BME280;59745;52.924;-2.388;2022-07-23T07:47:56;99495.64;;;26.06;31.69
71873;BME280;59745;52.924;-2.388;2022-07-23T07:50:22;99488.42;;;26.38;30.77
71873;BME280;59745;52.924;-2.388;2022-07-23T07:52:47;99493.56;;;26.20;31.42
71873;BME280;59745;52.924;-2.388;2022-07-23T07:55:12;99491.71;;;26.34;31.77
71873;BME280;59745;52.924;-2.388;2022-07-23T07:57:38;99492.19;;;26.44;31.61
71873;BME280;59745;52.924;-2.388;2022-07-23T08:00:03;99496.39;;;26.03;31.35
71873;BME280;59745;52.924;-2.388;2022-07-23T08:02:27;99497.78;;;26.52;31.89
71873;BME280;59745;52.924;-2.388;2022-07-23T08:04:53;99494.69;;;26.87;32.06
71873;BME280;59745;52.924;-2.388;2022-07-23T08:07:18;99492.28;;;27.00;30.87
71873;BME280;59745;52.924;-2.388;2022-07-23T08:09:42;99490.67;;;27.39;30.96
71873;BME280;59745;52.924;-2.388;2022-07-23T08:12:08;99485.78;;;27.70;29.95
71873;BME280;59745;52.924;-2.388;2022-07-23T08:14:33;99478.87;;;28.02;29.06
71873;BME280;59745;52.924;-2.388;2022-07-23T08:16:58;99478.12;;;28.23;29.73
71873;BME280;59745;52.924;-2.388;2022-07-23T08:19:23;99479.77;;;28.57;30.60
71873;BME280;59745;52.924;-2.388;2022-07-23T08:21:48;99479.59;;;29.00;28.46
71873;BME280;59745;52.924;-2.388;2022-07-23T08:24:13;99477.13;;;29.30;28.87
71873;BME280;59745;52.924;-2.388;2022-07-23T08:26:38;99472.37;;;29.85;28.18
71873;BME280;59745;52.924;-2.388;2022-07-23T08:29:03;99471.59;;;29.80;27.55
71873;BME280;59745;52.924;-2.388;2022-07-23T08:31:29;99472.92;;;30.30;27.65
71873;BME280;59745;52.924;-2.388;2022-07-23T08:33:54;99473.32;;;30.66;26.08
71873;BME280;59745;52.924;-2.388;2022-07-23T08:36:20;99479.97;;;30.65;26.74
71873;BME280;59745;52.924;-2.388;2022-07-23T08:38:46;99479.14;;;31.33;26.96
71873;BME280;59745;52.924;-2.388;2022-07-23T08:41:12;99480.78;;;31.28;25.72
71873;BME280;59745;52.924;-2.388;2022-07-23T08:43:38;99474.95;;;31.52;25.24
71873;BME280;59745;52.924;-2.388;2022-07-23T08:46:04;99466.06;;;31.61;23.81
71873;BME280;59745;52.924;-2.388;2022-07-23T08:48:31;99464.84;;;31.77;24.36
71873;BME280;59745;52.924;-2.388;2022-07-23T08:50:57;99466.29;;;31.91;24.24
71873;BME280;59745;52.924;-2.388;2022-07-23T08:53:22;99472.60;;;32.17;24.18
71873;BME280;59745;52.924;-2.388;2022-07-23T08:55:48;99474.32;;;32.35;25.06
71873;BME280;59745;52.924;-2.388;2022-07-23T08:58:14;99466.20;;;32.29;23.84
71873;BME280;59745;52.924;-2.388;2022-07-23T09:00:39;99467.78;;;32.06;22.93
71873;BME280;59745;52.924;-2.388;2022-07-23T09:03:05;99463.62;;;31.96;23.33
71873;BME280;59745;52.924;-2.388;2022-07-23T09:05:30;99467.61;;;31.87;23.00
71873;BME280;59745;52.924;-2.388;2022-07-23T09:08:07;99473.98;;;31.79;24.30
71873;BME280;59745;52.924;-2.388;2022-07-23T09:10:22;99474.35;;;31.61;23.21
71873;BME280;59745;52.924;-2.388;2022-07-23T09:12:48;99473.69;;;31.34;23.26
71873;BME280;59745;52.924;-2.388;2022-07-23T09:15:14;99482.43;;;31.53;23.86
71873;BME280;59745;52.924;-2.388;2022-07-23T09:17:42;99477.69;;;31.18;23.87
71873;BME280;59745;52.924;-2.388;2022-07-23T09:20:10;99480.06;;;30.98;23.78
71873;BME280;59745;52.924;-2.388;2022-07-23T09:22:30;99477.72;;;30.54;23.73
71873;BME280;59745;52.924;-2.388;2022-07-23T09:25:06;99477.72;;;30.52;24.29
71873;BME280;59745;52.924;-2.388;2022-07-23T09:27:20;99476.84;;;30.13;24.17
71873;BME280;59745;52.924;-2.388;2022-07-23T09:32:15;99467.57;;;29.35;25.45
71873;BME280;59745;52.924;-2.388;2022-07-23T09:34:36;99461.78;;;29.14;25.64
71873;BME280;59745;52.924;-2.388;2022-07-23T09:37:08;99464.38;;;29.05;26.22
71873;BME280;59745;52.924;-2.388;2022-07-23T09:39:28;99463.74;;;28.99;26.63
71873;BME280;59745;52.924;-2.388;2022-07-23T09:41:51;99473.02;;;28.80;26.70
71873;BME280;59745;52.924;-2.388;2022-07-23T09:44:17;99481.25;;;28.94;26.96
71873;BME280;59745;52.924;-2.388;2022-07-23T09:46:41;99481.73;;;29.03;27.32
71873;BME280;59745;52.924;-2.388;2022-07-23T09:49:13;99485.32;;;28.35;27.83
71873;BME280;59745;52.924;-2.388;2022-07-23T09:51:31;99480.46;;;28.29;28.52
71873;BME280;59745;52.924;-2.388;2022-07-23T09:53:56;99472.02;;;28.02;28.78
71873;BME280;59745;52.924;-2.388;2022-07-23T09:56:21;99469.66;;;27.61;29.09
71873;BME280;59745;52.924;-2.388;2022-07-23T09:58:50;99469.65;;;27.49;29.15
71873;BME280;59745;52.924;-2.388;2022-07-23T10:01:13;99471.24;;;27.39;29.31
71873;BME280;59745;52.924;-2.388;2022-07-23T10:03:36;99471.54;;;27.72;29.62
71873;BME280;59745;52.924;-2.388;2022-07-23T10:06:01;99469.22;;;27.33;30.08
71873;BME280;59745;52.924;-2.388;2022-07-23T10:08:26;99475.48;;;27.18;30.15
71873;BME280;59745;52.924;-2.388;2022-07-23T10:10:51;99480.14;;;27.28;30.71
71873;BME280;59745;52.924;-2.388;2022-07-23T10:13:16;99478.02;;;27.06;31.19
71873;BME280;59745;52.924;-2.388;2022-07-23T10:15:41;99477.19;;;26.92;30.93
71873;BME280;59745;52.924;-2.388;2022-07-23T10:18:10;99476.14;;;27.08;31.52
71873;BME280;59745;52.924;-2.388;2022-07-23T10:20:31;99476.93;;;27.20;31.21
71873;BME280;59745;52.924;-2.388;2022-07-23T10:23:02;99475.52;;;27.06;31.26
71873;BME280;59745;52.924;-2.388;2022-07-23T10:25:26;99474.16;;;27.21;31.65
71873;BME280;59745;52.924;-2.388;2022-07-23T10:28:01;99477.42;;;27.17;31.43
71873;BME280;59745;52.924;-2.388;2022-07-23T10:30:16;99476.50;;;27.18;31.71
71873;BME280;59745;52.924;-2.388;2022-07-23T10:32:43;99475.11;;;27.02;32.12
71873;BME280;59745;52.924;-2.388;2022-07-23T10:35:09;99474.85;;;27.28;32.36
71873;BME280;59745;52.924;-2.388;2022-07-23T10:37:32;99471.84;;;27.34;32.26
71873;BME280;59745;52.924;-2.388;2022-07-23T10:42:17;99471.18;;;27.24;32.10
71873;BME280;59745;52.924;-2.388;2022-07-23T10:44:44;99472.14;;;27.18;32.28
71873;BME280;59745;52.924;-2.388;2022-07-23T10:47:07;99467.83;;;27.10;32.65
71873;BME280;59745;52.924;-2.388;2022-07-23T10:49:33;99465.57;;;26.91;32.65
71873;BME280;59745;52.924;-2.388;2022-07-23T10:52:16;99467.46;;;27.30;32.70
71873;BME280;59745;52.924;-2.388;2022-07-23T10:54:22;99459.60;;;27.62;31.89
71873;BME280;59745;52.924;-2.388;2022-07-23T10:57:04;99462.68;;;27.49;32.18
71873;BME280;59745;52.924;-2.388;2022-07-23T10:59:12;99462.04;;;27.61;32.04
71873;BME280;59745;52.924;-2.388;2022-07-23T11:01:38;99462.70;;;27.61;32.10
71873;BME280;59745;52.924;-2.388;2022-07-23T11:04:03;99454.30;;;27.71;32.08
71873;BME280;59745;52.924;-2.388;2022-07-23T11:11:17;99448.57;;;27.41;31.99
71873;BME280;59745;52.924;-2.388;2022-07-23T11:13:47;99449.37;;;27.44;32.36
71873;BME280;59745;52.924;-2.388;2022-07-23T11:16:17;99446.57;;;27.50;32.06
71873;BME280;59745;52.924;-2.388;2022-07-23T11:18:52;99442.57;;;27.43;32.42
71873;BME280;59745;52.924;-2.388;2022-07-23T11:23:23;99444.75;;;27.68;32.75
71873;BME280;59745;52.924;-2.388;2022-07-23T11:25:48;99445.48;;;27.56;32.19
71873;BME280;59745;52.924;-2.388;2022-07-23T11:28:16;99448.98;;;28.00;32.75
71873;BME280;59745;52.924;-2.388;2022-07-23T11:30:40;99448.77;;;27.60;31.49
71873;BME280;59745;52.924;-2.388;2022-07-23T11:33:17;99442.63;;;27.82;31.58
71873;BME280;59745;52.924;-2.388;2022-07-23T11:35:28;99436.74;;;28.01;31.26
71873;BME280;59745;52.924;-2.388;2022-07-23T11:37:54;99436.04;;;27.99;31.50
71873;BME280;59745;52.924;-2.388;2022-07-23T11:40:18;99431.99;;;28.43;31.30
71873;BME280;59745;52.924;-2.388;2022-07-23T11:42:53;99427.83;;;28.49;31.17
71873;BME280;59745;52.924;-2.388;2022-07-23T11:45:09;99418.54;;;28.46;31.20
71873;BME280;59745;52.924;-2.388;2022-07-23T11:47:33;99420.98;;;28.52;30.06
71873;BME280;59745;52.924;-2.388;2022-07-23T11:49:59;99421.54;;;28.38;30.47
71873;BME280;59745;52.924;-2.388;2022-07-23T11:52:24;99421.12;;;28.60;30.03
71873;BME280;59745;52.924;-2.388;2022-07-23T11:54:50;99421.29;;;28.36;29.67
71873;BME280;59745;52.924;-2.388;2022-07-23T11:57:14;99426.92;;;28.32;31.05
71873;BME280;59745;52.924;-2.388;2022-07-23T11:59:38;99425.89;;;27.86;30.95
71873;BME280;59745;52.924;-2.388;2022-07-23T12:02:05;99429.39;;;28.13;30.87
71873;BME280;59745;52.924;-2.388;2022-07-23T12:04:37;99431.68;;;28.11;30.44
71873;BME280;59745;52.924;-2.388;2022-07-23T12:06:53;99422.87;;;27.82;31.14
71873;BME280;59745;52.924;-2.388;2022-07-23T12:09:18;99423.53;;;27.61;31.61
71873;BME280;59745;52.924;-2.388;2022-07-23T12:11:57;99419.76;;;27.63;31.62
71873;BME280;59745;52.924;-2.388;2022-07-23T12:14:09;99417.92;;;27.52;31.19
71873;BME280;59745;52.924;-2.388;2022-07-23T12:16:34;99412.17;;;27.18;32.35
71873;BME280;59745;52.924;-2.388;2022-07-23T12:18:59;99404.31;;;27.25;32.25
71873;BME280;59745;52.924;-2.388;2022-07-23T12:21:24;99397.53;;;27.58;32.48
71873;BME280;59745;52.924;-2.388;2022-07-23T12:23:49;99398.08;;;28.01;32.13
71873;BME280;59745;52.924;-2.388;2022-07-23T12:26:14;99399.67;;;28.02;31.96
71873;BME280;59745;52.924;-2.388;2022-07-23T12:28:39;99395.49;;;28.22;31.43
71873;BME280;59745;52.924;-2.388;2022-07-23T12:31:04;99397.09;;;28.12;31.45
71873;BME280;59745;52.924;-2.388;2022-07-23T12:33:31;99400.59;;;28.46;31.00
71873;BME280;59745;52.924;-2.388;2022-07-23T12:35:55;99399.60;;;28.01;30.55
71873;BME280;59745;52.924;-2.388;2022-07-23T12:38:21;99401.24;;;28.45;30.59
71873;BME280;59745;52.924;-2.388;2022-07-23T12:40:45;99405.42;;;28.46;30.90
71873;BME280;59745;52.924;-2.388;2022-07-23T12:43:11;99404.47;;;28.56;30.88
71873;BME280;59745;52.924;-2.388;2022-07-23T12:45:45;99399.95;;;28.34;30.65
71873;BME280;59745;52.924;-2.388;2022-07-23T12:48:03;99392.09;;;28.74;31.15
71873;BME280;59745;52.924;-2.388;2022-07-23T12:50:32;99387.38;;;28.27;31.68
71873;BME280;59745;52.924;-2.388;2022-07-23T12:52:51;99384.92;;;28.22;31.15